createdAt,value
2023-01-13T00:01:56.604Z,92252.75
2023-01-13T00:04:28.890Z,92248.00
2023-01-13T00:07:01.348Z,92252.22
2023-01-13T00:09:33.462Z,92255.63
2023-01-13T00:12:06.102Z,92254.94
2023-01-13T00:14:38.303Z,92255.25
2023-01-13T00:17:11.298Z,92260.13
2023-01-13T00:19:44.006Z,92257.56
2023-01-13T00:22:16.152Z,92253.63
2023-01-13T00:24:48.230Z,92263.13
2023-01-13T00:27:20.237Z,92260.25
2023-01-13T00:29:52.467Z,92259.53
2023-01-13T00:32:25.191Z,92253.47
2023-01-13T00:34:58.251Z,92251.06
2023-01-13T00:37:30.246Z,92251.81
2023-01-13T00:40:02.537Z,92215.78
2023-01-13T00:42:52.724Z,92254.09
2023-01-13T00:45:24.865Z,92252.59
2023-01-13T00:47:57.560Z,92255.25
2023-01-13T00:50:29.929Z,92256.50
2023-01-13T00:53:02.005Z,92251.44
2023-01-13T00:55:34.358Z,92249.47
2023-01-13T00:58:06.401Z,92252.13
2023-01-13T01:00:38.529Z,92247.03
2023-01-13T01:03:11.609Z,92252.19
2023-01-13T01:05:43.680Z,92239.63
2023-01-13T01:08:15.711Z,92244.00
2023-01-13T01:10:47.784Z,92247.59
2023-01-13T01:13:19.846Z,92237.47
2023-01-13T01:15:51.934Z,92238.56
2023-01-13T01:18:24.916Z,92237.81
2023-01-13T01:20:59.065Z,92229.81
2023-01-13T01:23:31.459Z,92229.09
2023-01-13T01:26:04.690Z,92226.03
2023-01-13T01:28:36.693Z,92227.09
2023-01-13T01:31:09.330Z,92231.25
2023-01-13T01:33:42.332Z,92229.97
2023-01-13T01:36:15.418Z,92223.53
2023-01-13T01:38:47.787Z,92225.84
2023-01-13T01:41:20.859Z,92226.63
2023-01-13T01:43:59.430Z,92228.72
2023-01-13T01:46:32.734Z,92223.63
2023-01-13T01:49:08.857Z,92219.28
2023-01-13T01:51:43.411Z,92219.81
2023-01-13T01:54:19.322Z,92220.75
2023-01-13T01:56:51.851Z,92212.81
2023-01-13T01:59:26.213Z,92214.66
2023-01-13T02:02:01.038Z,92217.00
2023-01-13T02:04:37.485Z,92214.66
2023-01-13T02:07:09.717Z,92225.16
2023-01-13T02:09:41.951Z,92212.97
2023-01-13T02:12:31.242Z,92218.38
2023-01-13T02:15:05.175Z,92215.31
2023-01-13T02:17:48.621Z,92215.38
2023-01-13T02:20:29.867Z,92220.00
2023-01-13T02:23:51.586Z,92219.44
2023-01-13T02:26:37.083Z,92212.31
2023-01-13T02:29:31.529Z,92214.13
2023-01-13T02:32:07.747Z,92210.34
2023-01-13T02:34:42.187Z,92209.59
2023-01-13T02:37:18.765Z,92211.66
2023-01-13T02:39:55.450Z,92212.75
2023-01-13T02:42:48.893Z,92207.59
2023-01-13T02:45:24.125Z,92209.63
2023-01-13T02:47:58.267Z,92211.97
2023-01-13T02:50:34.175Z,92202.50
2023-01-13T02:53:10.326Z,92212.50
2023-01-13T02:55:45.646Z,92207.06
2023-01-13T02:58:19.737Z,92204.72
2023-01-13T03:00:52.100Z,92208.19
2023-01-13T03:03:24.990Z,92205.38
2023-01-13T03:06:02.186Z,92208.78
2023-01-13T03:08:42.058Z,92204.53
2023-01-13T03:11:16.182Z,92206.94
2023-01-13T03:14:03.464Z,92205.19
2023-01-13T03:16:44.363Z,92211.38
2023-01-13T03:19:24.925Z,92204.91
2023-01-13T03:21:59.417Z,92203.16
2023-01-13T03:24:34.784Z,92210.72
2023-01-13T03:27:10.302Z,92205.09
2023-01-13T03:29:44.823Z,92203.50
2023-01-13T03:32:20.017Z,92215.72
2023-01-13T03:34:54.950Z,92210.84
2023-01-13T03:37:29.171Z,92208.00
2023-01-13T03:40:03.617Z,92207.03
2023-01-13T03:42:37.623Z,92209.38
2023-01-13T03:45:12.361Z,92207.00
2023-01-13T03:47:49.175Z,92197.97
2023-01-13T03:50:22.955Z,92211.53
2023-01-13T03:52:56.876Z,92203.28
2023-01-13T03:55:32.482Z,92202.91
2023-01-13T03:58:07.106Z,92213.91
2023-01-13T04:00:43.793Z,92207.69
2023-01-13T04:03:20.362Z,92208.22
2023-01-13T04:05:57.868Z,92213.66
2023-01-13T04:08:30.687Z,92213.69
2023-01-13T04:11:05.174Z,92210.66
2023-01-13T04:13:39.981Z,92218.63
2023-01-13T04:16:12.147Z,92221.03
2023-01-13T04:18:44.334Z,92216.13
2023-01-13T04:21:17.072Z,92227.19
2023-01-13T04:23:50.771Z,92222.31
2023-01-13T04:26:23.760Z,92219.44
2023-01-13T04:28:55.952Z,92226.13
2023-01-13T04:31:28.260Z,92226.66
2023-01-13T04:34:00.973Z,92228.28
2023-01-13T04:36:34.966Z,92224.16
2023-01-13T04:39:07.037Z,92228.28
2023-01-13T04:41:57.271Z,92226.09
2023-01-13T04:44:31.106Z,92228.44
2023-01-13T04:47:03.564Z,92230.06
2023-01-13T04:49:35.645Z,92232.41
2023-01-13T04:52:08.320Z,92223.91
2023-01-13T04:54:40.411Z,92228.59
2023-01-13T04:57:12.461Z,92229.34
2023-01-13T04:59:44.553Z,92229.66
2023-01-13T05:02:19.151Z,92232.09
2023-01-13T05:04:51.439Z,92240.31
2023-01-13T05:07:24.205Z,92235.25
2023-01-13T05:09:56.361Z,92237.75
2023-01-13T05:12:46.805Z,92236.91
2023-01-13T05:15:45.256Z,92245.44
2023-01-13T05:18:18.501Z,92243.84
2023-01-13T05:20:50.516Z,92242.69
2023-01-13T05:23:41.690Z,92244.66
2023-01-13T05:26:14.057Z,92243.00
2023-01-13T05:28:46.221Z,92248.78
2023-01-13T05:31:18.259Z,92245.50
2023-01-13T05:33:50.358Z,92249.56
2023-01-13T05:36:22.303Z,92250.81
2023-01-13T05:38:55.005Z,92248.84
2023-01-13T05:41:45.254Z,92248.72
2023-01-13T05:44:17.366Z,92243.22
2023-01-13T05:46:49.513Z,92247.75
2023-01-13T05:49:21.702Z,92242.28
2023-01-13T05:51:53.788Z,92248.75
2023-01-13T05:54:26.597Z,92245.44
2023-01-13T05:56:58.827Z,92251.63
2023-01-13T05:59:30.867Z,92254.31
2023-01-13T06:02:02.955Z,92251.03
2023-01-13T06:04:35.042Z,92251.47
2023-01-13T06:07:07.063Z,92253.28
2023-01-13T06:09:39.801Z,92255.16
2023-01-13T06:12:12.556Z,92260.38
2023-01-13T06:14:44.611Z,92259.28
2023-01-13T06:17:16.646Z,92265.06
2023-01-13T06:19:48.742Z,92268.31
2023-01-13T06:22:23.296Z,92273.31
2023-01-13T06:24:56.052Z,92278.75
2023-01-13T06:27:28.928Z,92269.38
2023-01-13T06:30:01.101Z,92274.06
2023-01-13T06:32:38.016Z,92271.56
2023-01-13T06:35:11.782Z,92272.28
2023-01-13T06:37:44.725Z,92275.94
2023-01-13T06:40:17.796Z,92270.97
2023-01-13T06:43:09.709Z,92265.59
2023-01-13T06:45:43.440Z,92271.28
2023-01-13T06:48:16.807Z,92267.63
2023-01-13T06:50:49.141Z,92271.75
2023-01-13T06:53:21.247Z,92272.38
2023-01-13T06:55:53.985Z,92264.34
2023-01-13T06:58:26.039Z,92270.50
2023-01-13T07:00:59.861Z,92269.72
2023-01-13T07:03:32.341Z,92270.72
2023-01-13T07:06:04.587Z,92266.91
2023-01-13T07:08:36.645Z,92269.00
2023-01-13T07:11:09.389Z,92267.28
2023-01-13T07:13:59.405Z,92255.38
2023-01-13T07:16:31.703Z,92265.81
2023-01-13T07:19:03.907Z,92255.53
2023-01-13T07:21:36.045Z,92253.19
2023-01-13T07:24:08.100Z,92256.25
2023-01-13T07:26:40.859Z,92243.53
2023-01-13T07:29:13.215Z,92253.13
2023-01-13T07:31:45.312Z,92246.22
2023-01-13T07:34:17.344Z,92246.97
2023-01-13T07:36:49.399Z,92247.75
2023-01-13T07:39:21.371Z,92236.88
2023-01-13T07:42:12.807Z,92250.47
2023-01-13T07:44:44.887Z,92243.34
2023-01-13T07:47:16.991Z,92240.50
2023-01-13T07:49:49.021Z,92247.28
2023-01-13T07:52:21.133Z,92239.81
2023-01-13T07:54:53.153Z,92250.56
2023-01-13T07:57:25.858Z,92250.41
2023-01-13T07:59:57.886Z,92254.38
2023-01-13T08:02:30.092Z,92252.91
2023-01-13T08:05:02.414Z,92253.28
2023-01-13T08:07:34.756Z,92259.84
2023-01-13T08:10:07.341Z,92265.75
2023-01-13T08:12:58.836Z,92270.16
2023-01-13T08:15:31.140Z,92266.56
2023-01-13T08:18:03.480Z,92273.50
2023-01-13T08:20:35.559Z,92268.72
2023-01-13T08:23:07.758Z,92274.22
2023-01-13T08:25:40.016Z,92274.59
2023-01-13T08:28:13.202Z,92271.78
2023-01-13T08:30:45.574Z,92279.16
2023-01-13T08:33:18.637Z,92275.91
2023-01-13T08:35:52.518Z,92275.56
2023-01-13T08:38:24.843Z,92285.41
2023-01-13T08:40:56.932Z,92285.72
2023-01-13T08:43:29.675Z,92288.13
2023-01-13T08:46:03.748Z,92265.56
2023-01-13T08:48:35.888Z,92274.81
2023-01-13T08:51:09.076Z,92284.69
2023-01-13T08:53:41.170Z,92283.22
2023-01-13T08:56:14.232Z,92277.69
2023-01-13T08:58:47.008Z,92275.91
2023-01-13T09:01:20.553Z,92276.41
2023-01-13T09:03:53.047Z,92277.34
2023-01-13T09:06:25.124Z,92279.00
2023-01-13T09:08:57.154Z,92274.88
2023-01-13T09:11:49.587Z,92282.00
2023-01-13T09:14:23.326Z,92278.22
2023-01-13T09:16:55.625Z,92284.34
2023-01-13T09:19:27.854Z,92284.28
2023-01-13T09:22:00.041Z,92277.88
2023-01-13T09:24:32.494Z,92280.16
2023-01-13T09:27:04.536Z,92285.63
2023-01-13T09:29:37.414Z,92284.78
2023-01-13T09:32:11.207Z,92277.59
2023-01-13T09:35:01.306Z,92277.69
2023-01-13T09:37:35.331Z,92276.69
2023-01-13T09:40:09.310Z,92271.31
2023-01-13T09:43:02.829Z,92277.34
2023-01-13T09:45:40.186Z,92275.97
2023-01-13T09:48:14.745Z,92281.47
2023-01-13T09:50:54.900Z,92274.06
2023-01-13T09:53:28.648Z,92271.31
2023-01-13T09:56:00.984Z,92272.09
2023-01-13T09:58:34.052Z,92273.69
2023-01-13T10:01:14.691Z,92263.88
2023-01-13T10:03:48.319Z,92266.41
2023-01-13T10:06:22.878Z,92260.22
2023-01-13T10:08:55.384Z,92262.53
2023-01-13T10:11:48.938Z,92258.56
2023-01-13T10:14:24.328Z,92255.00
2023-01-13T10:17:03.103Z,92262.00
2023-01-13T10:19:38.487Z,92253.84
2023-01-13T10:22:34.690Z,92254.13
2023-01-13T10:25:14.371Z,92248.91
2023-01-13T10:27:49.347Z,92245.03
2023-01-13T10:30:22.518Z,92247.31
2023-01-13T10:32:56.700Z,92246.75
2023-01-13T10:35:47.899Z,92243.56
2023-01-13T10:38:21.385Z,92236.88
2023-01-13T10:40:54.511Z,92237.38
2023-01-13T10:43:27.415Z,92238.84
2023-01-13T10:46:01.889Z,92236.56
2023-01-13T10:48:36.250Z,92242.00
2023-01-13T10:51:16.428Z,92235.47
2023-01-13T10:53:56.485Z,92235.72
2023-01-13T10:56:30.012Z,92233.72
2023-01-13T10:59:09.371Z,92239.53
2023-01-13T11:01:42.704Z,92234.81
2023-01-13T11:04:24.488Z,92231.84
2023-01-13T11:06:56.860Z,92241.16
2023-01-13T11:09:29.540Z,92237.53
2023-01-13T11:12:02.619Z,92236.97
2023-01-13T11:14:38.904Z,92238.53
2023-01-13T11:17:34.655Z,92223.03
2023-01-13T11:20:15.684Z,92226.38
2023-01-13T11:22:48.705Z,92230.53
2023-01-13T11:25:22.765Z,92226.25
2023-01-13T11:27:57.367Z,92222.66
2023-01-13T11:30:34.038Z,92228.13
2023-01-13T11:33:14.827Z,92226.47
2023-01-13T11:36:01.632Z,92224.97
2023-01-13T11:38:37.801Z,92223.84
2023-01-13T11:41:15.361Z,92220.03
2023-01-13T11:43:50.217Z,92215.22
2023-01-13T11:46:25.673Z,92213.38
2023-01-13T11:48:59.309Z,92212.63
2023-01-13T11:51:36.825Z,92218.25
2023-01-13T11:54:29.586Z,92215.72
2023-01-13T11:57:18.609Z,92213.94
2023-01-13T12:00:02.380Z,92217.81
2023-01-13T12:02:50.529Z,92214.78
2023-01-13T12:05:26.829Z,92217.38
2023-01-13T12:08:09.010Z,92213.38
2023-01-13T12:10:44.676Z,92215.84
2023-01-13T12:13:23.536Z,92212.72
2023-01-13T12:16:04.390Z,92209.06
2023-01-13T12:18:44.011Z,92206.78
2023-01-13T12:21:19.210Z,92212.75
2023-01-13T12:23:55.612Z,92208.13
2023-01-13T12:26:29.858Z,92207.91
2023-01-13T12:29:04.656Z,92208.69
2023-01-13T12:31:38.249Z,92213.56
2023-01-13T12:34:18.092Z,92202.19
2023-01-13T12:36:54.747Z,92208.94
2023-01-13T12:39:36.304Z,92219.03
2023-01-13T12:42:29.888Z,92216.69
2023-01-13T12:45:06.278Z,92213.25
2023-01-13T12:47:39.322Z,92215.91
2023-01-13T12:50:44.433Z,92212.28
2023-01-13T12:53:43.638Z,92213.53
2023-01-13T12:56:27.057Z,92218.47
2023-01-13T12:59:18.336Z,92220.25
2023-01-13T13:02:10.675Z,92224.91
2023-01-13T13:04:44.814Z,92223.38
2023-01-13T13:07:19.392Z,92216.13
2023-01-13T13:09:54.557Z,92223.66
2023-01-13T13:13:08.672Z,92214.84
2023-01-13T13:15:41.214Z,92217.19
2023-01-13T13:18:24.475Z,92225.44
2023-01-13T13:21:03.990Z,92226.00
2023-01-13T13:23:38.655Z,92224.47
2023-01-13T13:26:20.091Z,92231.97
2023-01-13T13:29:09.816Z,92231.47
2023-01-13T13:31:55.125Z,92231.41
2023-01-13T13:34:31.980Z,92229.34
2023-01-13T13:37:20.976Z,92227.06
2023-01-13T13:40:12.060Z,92224.00
2023-01-13T13:43:03.042Z,92217.78
2023-01-13T13:45:53.293Z,92227.09
2023-01-13T13:48:27.175Z,92235.34
2023-01-13T13:51:01.716Z,92232.50
2023-01-13T13:53:35.458Z,92225.28
2023-01-13T13:56:15.325Z,92230.44
2023-01-13T13:58:48.001Z,92227.84
2023-01-13T14:01:22.568Z,92228.66
2023-01-13T14:04:04.419Z,92223.22
2023-01-13T14:06:38.223Z,92225.03
2023-01-13T14:09:15.585Z,92229.41
2023-01-13T14:11:54.566Z,92228.41
2023-01-13T14:14:26.704Z,92227.88
2023-01-13T14:16:58.834Z,92221.16
2023-01-13T14:19:32.965Z,92225.03
2023-01-13T14:22:05.148Z,92228.06
2023-01-13T14:24:44.675Z,92231.72
2023-01-13T14:27:18.056Z,92229.38
2023-01-13T14:29:52.887Z,92238.66
2023-01-13T14:32:28.453Z,92236.63
2023-01-13T14:35:01.488Z,92234.56
2023-01-13T14:37:35.793Z,92240.47
2023-01-13T14:40:22.659Z,92232.94
2023-01-13T14:42:57.884Z,92237.59
2023-01-13T14:45:32.432Z,92246.38
2023-01-13T14:48:07.764Z,92241.22
2023-01-13T14:50:41.963Z,92242.22
2023-01-13T14:53:27.109Z,92240.47
2023-01-13T14:55:59.267Z,92241.22
2023-01-13T14:58:31.376Z,92245.63
2023-01-13T15:01:30.570Z,92253.13
2023-01-13T15:04:15.585Z,92252.06
2023-01-13T15:06:50.517Z,92250.78
2023-01-13T15:09:24.395Z,92251.03
2023-01-13T15:11:58.067Z,92253.09
2023-01-13T15:14:31.648Z,92245.81
2023-01-13T15:17:08.829Z,92246.31
2023-01-13T15:19:40.939Z,92241.44
2023-01-13T15:22:13.677Z,92253.84
2023-01-13T15:24:46.194Z,92250.47
2023-01-13T15:27:20.667Z,92252.53
2023-01-13T15:29:52.732Z,92250.47
2023-01-13T15:32:24.778Z,92256.91
2023-01-13T15:34:57.091Z,92249.66
2023-01-13T15:37:30.016Z,92256.34
2023-01-13T15:40:02.577Z,92256.56
2023-01-13T15:42:49.236Z,92254.22
2023-01-13T15:45:39.185Z,92257.56
2023-01-13T15:48:11.249Z,92258.88
2023-01-13T15:50:43.279Z,92254.22
2023-01-13T15:53:16.288Z,92263.75
2023-01-13T15:55:50.528Z,92264.28
2023-01-13T15:58:24.644Z,92261.41
2023-01-13T16:00:56.842Z,92261.97
2023-01-13T16:03:28.907Z,92264.53
2023-01-13T16:06:01.583Z,92262.72
2023-01-13T16:08:34.239Z,92256.00
2023-01-13T16:11:06.293Z,92261.19
2023-01-13T16:13:38.422Z,92255.78
2023-01-13T16:16:15.806Z,92262.47
2023-01-13T16:18:48.263Z,92256.56
2023-01-13T16:21:20.694Z,92253.22
2023-01-13T16:23:53.772Z,92261.72
2023-01-13T16:26:28.488Z,92261.44
2023-01-13T16:29:00.919Z,92249.34
2023-01-13T16:31:33.860Z,92265.34
2023-01-13T16:34:06.222Z,92265.56
2023-01-13T16:36:38.240Z,92257.81
2023-01-13T16:39:19.573Z,92260.94
2023-01-13T16:41:51.591Z,92261.97
2023-01-13T16:44:23.652Z,92261.97
2023-01-13T16:46:55.679Z,92257.81
2023-01-13T16:49:27.843Z,92257.81
2023-01-13T16:52:00.218Z,92266.09
2023-01-13T16:54:33.197Z,92264.28
2023-01-13T16:57:07.037Z,92267.13
2023-01-13T16:59:39.173Z,92268.66
2023-01-13T17:02:12.255Z,92272.56
2023-01-13T17:04:44.483Z,92269.47
2023-01-13T17:07:16.564Z,92269.19
2023-01-13T17:09:49.328Z,92268.66
2023-01-13T17:12:21.380Z,92262.47
2023-01-13T17:14:53.448Z,92261.72
2023-01-13T17:17:26.805Z,92269.44
2023-01-13T17:19:59.152Z,92265.81
2023-01-13T17:22:31.630Z,92276.91
2023-01-13T17:25:04.764Z,92272.50
2023-01-13T17:27:36.845Z,92266.81
2023-01-13T17:30:10.073Z,92266.03
2023-01-13T17:32:42.164Z,92271.44
2023-01-13T17:35:18.249Z,92279.19
2023-01-13T17:37:50.303Z,92276.34
2023-01-13T17:40:23.581Z,92265.00
2023-01-13T17:42:56.541Z,92265.50
2023-01-13T17:45:28.883Z,92266.56
2023-01-13T17:48:01.544Z,92272.03
2023-01-13T17:50:34.289Z,92270.28
2023-01-13T17:53:06.354Z,92265.41
2023-01-13T17:55:39.058Z,92268.28
2023-01-13T17:58:11.072Z,92258.44
2023-01-13T18:00:44.521Z,92262.31
2023-01-13T18:03:17.578Z,92262.31
2023-01-13T18:05:49.680Z,92260.28
2023-01-13T18:08:22.956Z,92261.31
2023-01-13T18:10:57.212Z,92261.06
2023-01-13T18:13:29.668Z,92257.94
2023-01-13T18:16:04.408Z,92260.75
2023-01-13T18:18:36.884Z,92265.16
2023-01-13T18:21:31.741Z,92259.75
2023-01-13T18:24:22.402Z,92265.47
2023-01-13T18:27:13.552Z,92267.50
2023-01-13T18:29:46.144Z,92265.97
2023-01-13T18:32:18.472Z,92274.00
2023-01-13T18:35:01.574Z,92271.91
2023-01-13T18:37:39.832Z,92270.88
2023-01-13T18:40:13.154Z,92271.41
2023-01-13T18:42:53.254Z,92271.16
2023-01-13T18:45:27.096Z,92262.63
2023-01-13T18:48:00.446Z,92267.06
2023-01-13T18:50:34.002Z,92265.00
2023-01-13T18:53:06.061Z,92262.66
2023-01-13T18:55:38.235Z,92262.41
2023-01-13T18:58:11.417Z,92270.91
2023-01-13T19:00:43.572Z,92260.59
2023-01-13T19:03:18.187Z,92268.88
2023-01-13T19:05:51.241Z,92272.50
2023-01-13T19:08:23.609Z,92270.44
2023-01-13T19:10:55.739Z,92266.28
2023-01-13T19:13:29.936Z,92257.75
2023-01-13T19:16:04.007Z,92257.25
2023-01-13T19:18:37.256Z,92254.91
2023-01-13T19:21:09.715Z,92254.41
2023-01-13T19:23:41.816Z,92255.97
2023-01-13T19:26:13.884Z,92254.16
2023-01-13T19:28:47.855Z,92251.84
2023-01-13T19:31:20.024Z,92252.09
2023-01-13T19:33:52.107Z,92254.94
2023-01-13T19:36:24.157Z,92257.75
2023-01-13T19:38:56.510Z,92257.75
2023-01-13T19:41:47.144Z,92257.75
2023-01-13T19:44:38.505Z,92260.84
2023-01-13T19:47:10.992Z,92260.06
2023-01-13T19:49:43.571Z,92257.19
2023-01-13T19:52:15.688Z,92264.94
2023-01-13T19:54:47.774Z,92265.22
2023-01-13T19:57:20.152Z,92259.28
2023-01-13T19:59:53.092Z,92248.13
2023-01-13T20:02:28.389Z,92251.75
2023-01-13T20:05:01.415Z,92250.22
2023-01-13T20:07:34.324Z,92254.59
2023-01-13T20:10:07.111Z,92247.63
2023-01-13T20:12:40.123Z,92247.88
2023-01-13T20:15:14.630Z,92246.56
2023-01-13T20:17:47.829Z,92243.75
2023-01-13T20:20:20.618Z,92246.81
2023-01-13T20:22:52.860Z,92242.44
2023-01-13T20:25:25.764Z,92238.81
2023-01-13T20:27:59.731Z,92232.09
2023-01-13T20:30:32.522Z,92232.91
2023-01-13T20:33:04.608Z,92233.38
2023-01-13T20:35:37.127Z,92233.63
2023-01-13T20:38:09.235Z,92231.31
2023-01-13T20:40:41.559Z,92224.59
2023-01-13T20:43:14.251Z,92234.66
2023-01-13T20:45:47.429Z,92233.63
2023-01-13T20:48:19.487Z,92243.22
2023-01-13T20:50:53.409Z,92237.78
2023-01-13T20:53:25.586Z,92242.38
2023-01-13T20:55:57.615Z,92242.63
2023-01-13T20:58:29.732Z,92253.44
2023-01-13T21:01:02.647Z,92248.28
2023-01-13T21:03:35.376Z,92245.91
2023-01-13T21:06:07.613Z,92249.78
2023-01-13T21:08:39.709Z,92241.28
2023-01-13T21:11:14.132Z,92236.34
2023-01-13T21:14:04.501Z,92233.22
2023-01-13T21:16:37.253Z,92241.25
2023-01-13T21:19:10.084Z,92245.38
2023-01-13T21:21:42.287Z,92243.59
2023-01-13T21:24:14.317Z,92252.59
2023-01-13T21:26:46.943Z,92255.94
2023-01-13T21:29:19.096Z,92262.28
2023-01-13T21:31:53.293Z,92263.34
2023-01-13T21:34:25.397Z,92264.13
2023-01-13T21:36:58.737Z,92263.38
2023-01-13T21:39:30.971Z,92259.25
2023-01-13T21:42:21.591Z,92255.34
2023-01-13T21:45:11.846Z,92257.41
2023-01-13T21:47:51.359Z,92247.31
2023-01-13T21:50:24.325Z,92251.44
2023-01-13T21:52:57.217Z,92247.56
2023-01-13T21:55:29.471Z,92248.56
2023-01-13T21:58:07.084Z,92247.03
2023-01-13T22:00:39.888Z,92244.44
2023-01-13T22:03:13.819Z,92249.88
2023-01-13T22:05:45.909Z,92236.47
2023-01-13T22:08:17.964Z,92242.66
2023-01-13T22:10:56.489Z,92232.56
2023-01-13T22:13:48.015Z,92235.34
2023-01-13T22:16:20.347Z,92228.91
2023-01-13T22:18:53.120Z,92234.84
2023-01-13T22:21:25.291Z,92238.72
2023-01-13T22:23:58.510Z,92226.84
2023-01-13T22:26:30.566Z,92231.22
2023-01-13T22:29:02.623Z,92238.22
2023-01-13T22:31:34.709Z,92229.91
2023-01-13T22:34:07.450Z,92228.66
2023-01-13T22:36:39.513Z,92219.88
2023-01-13T22:39:11.571Z,92219.13
2023-01-13T22:41:44.236Z,92218.34
2023-01-13T22:44:16.326Z,92233.06
2023-01-13T22:46:48.566Z,92228.41
2023-01-13T22:49:22.288Z,92236.94
2023-01-13T22:51:54.375Z,92234.31
2023-01-13T22:54:26.395Z,92229.16
2023-01-13T22:56:58.480Z,92223.44
2023-01-13T22:59:31.184Z,92226.00
2023-01-13T23:02:03.555Z,92220.56
2023-01-13T23:04:36.279Z,92224.91
2023-01-13T23:07:08.547Z,92221.78
2023-01-13T23:09:40.585Z,92228.25
2023-01-13T23:12:12.647Z,92226.38
2023-01-13T23:14:44.629Z,92223.28
2023-01-13T23:17:16.665Z,92221.75
2023-01-13T23:19:49.386Z,92215.00
2023-01-13T23:22:21.435Z,92218.50
2023-01-13T23:24:53.454Z,92208.66
2023-01-13T23:27:25.555Z,92215.38
2023-01-13T23:29:57.715Z,92210.69
2023-01-13T23:32:29.885Z,92209.59
2023-01-13T23:35:02.747Z,92207.78
2023-01-13T23:37:34.819Z,92207.72
2023-01-13T23:40:07.171Z,92212.63
2023-01-13T23:42:39.367Z,92208.75
2023-01-13T23:45:11.485Z,92210.75
2023-01-13T23:47:43.590Z,92215.06
2023-01-13T23:50:16.933Z,92208.38
2023-01-13T23:52:48.992Z,92208.88
2023-01-13T23:55:21.058Z,92213.50
2023-01-13T23:57:53.149Z,92201.03
